Time;durP1;ratioP1;P1;durP2;ratioP2;P2;SDS_P1;SDS_P2;PMS_P1;PMS_P2;Temp;Humidity;BMP_temperature;BMP_pressure;BME280_temperature;BME280_humidity;BME280_pressure;Samples;Min_cycle;Max_cycle;Signal;HPM_P1;HPM_P2
2022/09/22 00:00:41;;;;;;;2.10;1.58;;;11.60;79.60;;;;;;5059814;28;20028;-80
2022/09/22 00:03:07;;;;;;;2.03;1.80;;;11.60;79.70;;;;;;5054629;28;20055;-80
2022/09/22 00:05:33;;;;;;;2.43;1.90;;;11.50;79.60;;;;;;5053390;28;20016;-81
2022/09/22 00:08:00;;;;;;;2.25;1.70;;;11.50;79.70;;;;;;5074015;28;20020;-80
2022/09/22 00:10:27;;;;;;;2.50;1.75;;;11.50;79.70;;;;;;5064844;28;20037;-80
2022/09/22 00:12:53;;;;;;;2.60;1.60;;;11.40;79.80;;;;;;5080248;28;20386;-81
2022/09/22 00:15:20;;;;;;;2.60;1.80;;;11.40;79.80;;;;;;5057852;28;20109;-81
2022/09/22 00:17:46;;;;;;;2.67;1.85;;;11.40;79.90;;;;;;5044970;28;20816;-80
2022/09/22 00:20:12;;;;;;;2.40;1.63;;;11.30;79.90;;;;;;5064427;28;20032;-80
2022/09/22 00:22:39;;;;;;;2.60;1.90;;;11.30;79.90;;;;;;5050227;28;20032;-80
2022/09/22 00:25:06;;;;;;;2.20;1.70;;;11.30;80.00;;;;;;5071676;28;20037;-80
2022/09/22 00:27:32;;;;;;;2.50;1.77;;;11.20;80.00;;;;;;5083403;27;20493;-80
2022/09/22 00:29:57;;;;;;;3.60;2.10;;;11.20;80.10;;;;;;5050072;28;20012;-80
2022/09/22 00:32:23;;;;;;;2.38;1.77;;;11.20;80.10;;;;;;5049039;28;20133;-80
2022/09/22 00:34:49;;;;;;;2.53;1.83;;;11.10;80.20;;;;;;5064872;28;20019;-81
2022/09/22 00:37:14;;;;;;;2.60;1.85;;;11.10;80.30;;;;;;5076502;28;20055;-80
2022/09/22 00:39:40;;;;;;;3.27;1.80;;;11.10;80.40;;;;;;5056645;28;20035;-81
2022/09/22 00:42:06;;;;;;;2.43;1.90;;;11.10;80.40;;;;;;5062439;28;20366;-81
2022/09/22 00:44:31;;;;;;;3.07;2.10;;;11.00;80.40;;;;;;5080167;28;20021;-81
2022/09/22 00:47:00;;;;;;;3.15;1.95;;;11.00;80.40;;;;;;5050418;28;20332;-81
2022/09/22 00:49:59;;;;;;;2.78;1.70;;;10.90;80.80;;;;;;5045623;28;20020;-81
2022/09/22 00:52:35;;;;;;;2.95;1.90;;;10.90;80.60;;;;;;5067237;28;20036;-81
2022/09/22 00:55:10;;;;;;;2.40;1.70;;;10.90;80.50;;;;;;5074673;28;20120;-81
2022/09/22 00:57:39;;;;;;;3.92;1.90;;;10.90;80.50;;;;;;5064819;28;20127;-81
2022/09/22 01:00:07;;;;;;;2.95;2.10;;;10.80;80.60;;;;;;5059456;28;20033;-82
2022/09/22 01:02:32;;;;;;;2.58;1.75;;;10.80;80.60;;;;;;5060271;28;20044;-82
2022/09/22 01:04:58;;;;;;;3.57;1.97;;;10.80;80.50;;;;;;5044127;28;20114;-81
2022/09/22 01:07:27;;;;;;;2.30;1.70;;;10.70;80.60;;;;;;5070044;28;20078;-81
2022/09/22 01:09:54;;;;;;;2.53;1.53;;;10.70;80.60;;;;;;5054347;28;20028;-81
2022/09/22 01:12:22;;;;;;;2.22;1.67;;;10.70;80.60;;;;;;5079833;28;20527;-81
2022/09/22 01:15:06;;;;;;;2.60;1.80;;;10.70;80.70;;;;;;5058145;28;20511;-81
2022/09/22 01:17:56;;;;;;;2.15;1.58;;;10.70;81.00;;;;;;5073016;28;20130;-81
2022/09/22 01:20:30;;;;;;;2.60;1.80;;;10.60;80.90;;;;;;5054368;28;20282;-82
2022/09/22 01:23:47;;;;;;;2.10;1.60;;;10.60;80.80;;;;;;5057647;28;20024;-82
2022/09/22 01:26:25;;;;;;;3.00;1.88;;;10.60;81.20;;;;;;5032099;28;20051;-81
2022/09/22 01:29:12;;;;;;;2.83;1.55;;;10.50;80.80;;;;;;5038070;28;20167;-81
2022/09/22 01:32:00;;;;;;;2.17;1.80;;;10.50;81.10;;;;;;5060099;28;20133;-81
2022/09/22 01:34:43;;;;;;;2.47;1.80;;;10.50;81.10;;;;;;5090180;28;20023;-81
2022/09/22 01:37:36;;;;;;;1.73;1.50;;;10.40;81.10;;;;;;5054982;28;20527;-81
2022/09/22 01:40:23;;;;;;;2.13;1.60;;;10.40;81.30;;;;;;5046177;28;20043;-81
2022/09/22 01:43:12;;;;;;;2.05;1.52;;;10.30;81.20;;;;;;5058837;28;20495;-81
2022/09/22 01:45:40;;;;;;;2.20;1.50;;;10.40;81.20;;;;;;5062696;28;20397;-82
2022/09/22 01:48:17;;;;;;;2.92;1.80;;;10.30;81.10;;;;;;5046609;28;20040;-82
2022/09/22 01:50:48;;;;;;;2.30;1.63;;;10.30;81.20;;;;;;5079590;28;20106;-81
2022/09/22 01:53:19;;;;;;;2.38;1.70;;;10.20;81.10;;;;;;5051022;28;20171;-82
2022/09/22 01:55:50;;;;;;;2.00;1.70;;;10.20;81.20;;;;;;5071716;28;20107;-82
2022/09/22 01:58:24;;;;;;;2.28;1.70;;;10.20;81.20;;;;;;5052077;28;20119;-81
2022/09/22 02:00:58;;;;;;;2.33;1.50;;;10.20;82.00;;;;;;5066966;28;20029;-82
2022/09/22 02:03:42;;;;;;;1.87;1.50;;;10.20;81.30;;;;;;5090440;28;20560;-81
2022/09/22 02:06:22;;;;;;;2.65;1.80;;;10.10;81.40;;;;;;5052486;28;20122;-81
2022/09/22 02:08:58;;;;;;;3.55;1.67;;;10.10;81.40;;;;;;5040504;28;20115;-81
2022/09/22 02:11:24;;;;;;;2.78;1.55;;;10.00;81.40;;;;;;5064499;28;20262;-81
2022/09/22 02:13:50;;;;;;;2.07;1.53;;;10.00;81.30;;;;;;5078691;28;20067;-81
2022/09/22 02:16:20;;;;;;;2.40;1.65;;;10.00;81.40;;;;;;5027685;28;20020;-81
2022/09/22 02:18:53;;;;;;;2.65;1.75;;;10.00;81.50;;;;;;5070552;27;20047;-81
2022/09/22 02:21:20;;;;;;;3.97;1.95;;;9.90;81.60;;;;;;5075710;28;20223;-82
2022/09/22 02:23:48;;;;;;;2.10;1.70;;;9.90;81.60;;;;;;5048869;28;20466;-81
2022/09/22 02:26:22;;;;;;;2.70;1.70;;;9.90;81.70;;;;;;5062362;28;20058;-81
2022/09/22 02:28:51;;;;;;;2.28;1.70;;;9.90;81.80;;;;;;5070043;28;20029;-81
2022/09/22 02:31:18;;;;;;;2.55;1.52;;;9.90;81.80;;;;;;5072963;28;20400;-81
2022/09/22 02:33:43;;;;;;;2.50;1.73;;;9.80;81.80;;;;;;5068976;28;20024;-81
2022/09/22 02:36:36;;;;;;;2.60;1.57;;;9.80;81.80;;;;;;5074929;28;20024;-82
2022/09/22 02:39:09;;;;;;;2.05;1.60;;;9.80;82.00;;;;;;5054831;28;20031;-81
2022/09/22 02:41:55;;;;;;;2.55;1.60;;;9.80;82.00;;;;;;5059147;28;20024;-81
2022/09/22 02:44:29;;;;;;;2.08;1.60;;;9.80;82.20;;;;;;5074671;28;20028;-81
2022/09/22 02:47:00;;;;;;;1.90;1.60;;;9.80;82.20;;;;;;5076895;28;20106;-81
2022/09/22 02:49:28;;;;;;;2.60;1.70;;;9.70;82.10;;;;;;5063112;28;20067;-82
2022/09/22 02:51:53;;;;;;;2.30;1.80;;;9.70;82.10;;;;;;5063092;28;20382;-81
2022/09/22 02:54:21;;;;;;;2.50;1.67;;;9.70;82.80;;;;;;5070261;28;20032;-81
2022/09/22 02:56:46;;;;;;;2.33;1.80;;;9.60;82.10;;;;;;5078448;28;20428;-82
2022/09/22 02:59:12;;;;;;;2.53;1.55;;;9.60;82.10;;;;;;5078435;28;20020;-82
2022/09/22 03:01:38;;;;;;;1.98;1.60;;;9.60;82.20;;;;;;5054237;28;20032;-82
2022/09/22 03:04:05;;;;;;;2.30;1.60;;;9.60;82.20;;;;;;5067136;28;20018;-82
2022/09/22 03:06:30;;;;;;;2.50;1.63;;;9.60;82.20;;;;;;5087470;28;20043;-82
2022/09/22 03:08:56;;;;;;;3.10;1.50;;;9.60;82.20;;;;;;5034162;28;20096;-82
2022/09/22 03:11:22;;;;;;;2.70;2.00;;;9.50;82.20;;;;;;5054448;28;20036;-82
2022/09/22 03:13:48;;;;;;;2.53;1.77;;;9.50;82.20;;;;;;5079228;28;20023;-82
2022/09/22 03:16:13;;;;;;;2.97;2.00;;;9.50;82.20;;;;;;5057921;28;20481;-82
2022/09/22 03:18:39;;;;;;;2.20;1.60;;;9.50;82.20;;;;;;5064009;28;20677;-82
2022/09/22 03:21:05;;;;;;;2.87;1.70;;;9.40;82.20;;;;;;5084125;27;20025;-82
2022/09/22 03:23:30;;;;;;;2.75;2.00;;;9.40;82.20;;;;;;5037744;28;20025;-82
2022/09/22 03:25:56;;;;;;;2.27;1.80;;;9.40;82.20;;;;;;5045601;28;20020;-82
2022/09/22 03:28:22;;;;;;;2.55;1.75;;;9.40;82.20;;;;;;5033639;28;20119;-82
2022/09/22 03:30:47;;;;;;;2.73;2.10;;;9.30;82.20;;;;;;5043760;28;20520;-82
2022/09/22 03:33:13;;;;;;;2.53;1.80;;;9.30;82.20;;;;;;5081090;28;20107;-82
2022/09/22 03:35:39;;;;;;;2.13;1.70;;;9.30;82.40;;;;;;5044413;28;20055;-82
2022/09/22 03:38:04;;;;;;;2.43;1.83;;;9.30;82.40;;;;;;5044762;28;20177;-82
2022/09/22 03:40:30;;;;;;;2.75;1.85;;;9.20;82.50;;;;;;5056943;28;20054;-82
2022/09/22 03:42:56;;;;;;;3.00;1.83;;;9.20;82.50;;;;;;5076556;28;20028;-82
2022/09/22 03:45:22;;;;;;;2.97;2.00;;;9.20;82.50;;;;;;5072937;28;20036;-82
2022/09/22 03:47:48;;;;;;;3.42;2.15;;;9.10;82.60;;;;;;5068406;28;20264;-82
2022/09/22 03:50:13;;;;;;;2.60;1.90;;;9.10;82.60;;;;;;5076019;28;20024;-82
2022/09/22 03:52:41;;;;;;;2.77;1.93;;;9.10;82.50;;;;;;5071301;28;20316;-82
2022/09/22 03:55:08;;;;;;;2.55;1.88;;;9.10;82.60;;;;;;5069614;28;20028;-82
2022/09/22 03:57:34;;;;;;;3.22;2.20;;;9.10;82.60;;;;;;5034324;28;20485;-82
2022/09/22 04:00:00;;;;;;;2.47;1.80;;;9.10;82.70;;;;;;5081203;28;20122;-82
2022/09/22 04:02:25;;;;;;;3.13;1.95;;;9.10;82.70;;;;;;5073477;28;20520;-82
2022/09/22 04:04:51;;;;;;;3.53;2.30;;;9.10;82.90;;;;;;5055514;28;20024;-82
2022/09/22 04:07:17;;;;;;;3.10;2.07;;;9.00;82.80;;;;;;5080748;28;20531;-82
2022/09/22 04:09:42;;;;;;;2.28;1.77;;;9.00;82.70;;;;;;5071672;28;20517;-82
2022/09/22 04:12:08;;;;;;;3.20;2.23;;;9.00;82.70;;;;;;5045488;28;20033;-82
2022/09/22 04:14:34;;;;;;;2.90;2.10;;;9.00;82.80;;;;;;5046284;28;20028;-82
2022/09/22 04:17:00;;;;;;;2.70;1.92;;;9.00;82.80;;;;;;5054525;28;20128;-82
2022/09/22 04:19:26;;;;;;;2.78;2.00;;;9.00;83.60;;;;;;5079102;28;20120;-82
2022/09/22 04:21:52;;;;;;;3.03;2.20;;;8.90;82.90;;;;;;5059645;28;20036;-82
2022/09/22 04:24:17;;;;;;;4.60;2.30;;;8.90;83.00;;;;;;5073718;28;20322;-82
2022/09/22 04:26:43;;;;;;;3.40;2.20;;;8.90;83.00;;;;;;5043575;28;20019;-82
2022/09/22 04:29:09;;;;;;;2.80;2.13;;;8.90;83.00;;;;;;5032787;28;20164;-82
2022/09/22 04:31:34;;;;;;;3.70;2.30;;;8.80;83.00;;;;;;5055590;28;20052;-82
2022/09/22 04:34:00;;;;;;;4.87;2.60;;;8.80;83.00;;;;;;5063917;28;20619;-82
2022/09/22 04:36:25;;;;;;;3.22;2.10;;;8.80;83.00;;;;;;5044489;28;20032;-82
2022/09/22 04:38:51;;;;;;;3.17;2.37;;;8.80;83.00;;;;;;5044548;28;20415;-82
2022/09/22 04:41:17;;;;;;;4.05;2.42;;;8.80;83.00;;;;;;5045494;28;20043;-82
2022/09/22 04:43:42;;;;;;;3.23;2.10;;;8.80;83.10;;;;;;5041821;28;20028;-81
2022/09/22 04:46:08;;;;;;;2.73;2.13;;;8.80;83.20;;;;;;5052996;28;20081;-82
2022/09/22 04:48:33;;;;;;;3.67;2.30;;;8.80;83.20;;;;;;5056267;28;20288;-81
2022/09/22 04:50:59;;;;;;;3.73;2.90;;;8.70;83.20;;;;;;5062558;28;20016;-82
2022/09/22 04:53:25;;;;;;;3.80;3.00;;;8.70;83.30;;;;;;5067339;28;20764;-82
2022/09/22 04:55:51;;;;;;;4.90;3.30;;;8.70;83.40;;;;;;5057257;28;20544;-82
2022/09/22 04:58:16;;;;;;;4.32;3.03;;;8.70;83.50;;;;;;5049504;28;20033;-82
2022/09/22 05:00:42;;;;;;;3.90;2.73;;;8.70;83.50;;;;;;5073853;28;20016;-82
2022/09/22 05:03:10;;;;;;;3.97;2.85;;;8.70;83.40;;;;;;5041263;28;20033;-83
2022/09/22 05:05:37;;;;;;;4.25;3.00;;;8.70;83.50;;;;;;5067682;28;20409;-82
2022/09/22 05:08:03;;;;;;;3.88;2.70;;;8.60;83.40;;;;;;5050519;28;20048;-82
2022/09/22 05:10:31;;;;;;;4.27;2.37;;;8.60;83.40;;;;;;5062410;28;20058;-82
2022/09/22 05:12:57;;;;;;;4.18;2.90;;;8.60;83.40;;;;;;5047606;28;20183;-82
2022/09/22 05:15:24;;;;;;;4.05;2.78;;;8.60;83.50;;;;;;5041866;28;20097;-82
2022/09/22 05:17:51;;;;;;;3.78;2.30;;;8.60;84.30;;;;;;5055763;28;20028;-82
2022/09/22 05:20:19;;;;;;;4.43;2.83;;;8.60;83.60;;;;;;5043794;28;20028;-82
2022/09/22 05:22:45;;;;;;;3.73;2.53;;;8.50;83.50;;;;;;5062141;28;20789;-81
2022/09/22 05:25:13;;;;;;;2.92;2.30;;;8.50;83.60;;;;;;5067094;28;20018;-81
2022/09/22 05:27:43;;;;;;;3.55;2.38;;;8.50;83.60;;;;;;5065584;28;20023;-82
2022/09/22 05:30:09;;;;;;;4.43;2.72;;;8.40;83.80;;;;;;5049996;28;20722;-81
2022/09/22 05:32:35;;;;;;;3.47;2.60;;;8.50;83.80;;;;;;5069840;28;20182;-81
2022/09/22 05:35:00;;;;;;;3.50;2.30;;;8.40;83.80;;;;;;5044869;28;21054;-82
2022/09/22 05:37:26;;;;;;;3.67;2.40;;;8.40;84.00;;;;;;5052547;28;20027;-81
2022/09/22 05:39:52;;;;;;;3.60;2.50;;;8.50;84.00;;;;;;5048766;28;20031;-81
2022/09/22 05:42:17;;;;;;;3.37;2.30;;;8.40;84.10;;;;;;5044950;28;20023;-81
2022/09/22 05:44:43;;;;;;;2.95;2.20;;;8.40;84.10;;;;;;5035939;28;20020;-81
2022/09/22 05:47:08;;;;;;;2.73;2.03;;;8.40;84.20;;;;;;5068605;28;20041;-81
2022/09/22 05:49:34;;;;;;;3.37;2.20;;;8.40;84.30;;;;;;5057103;28;20127;-81
2022/09/22 05:52:00;;;;;;;3.53;2.15;;;8.40;84.30;;;;;;5063839;28;20256;-81
2022/09/22 05:54:26;;;;;;;3.50;2.25;;;8.40;84.40;;;;;;5035387;28;20020;-81
2022/09/22 05:56:51;;;;;;;3.70;2.33;;;8.50;84.50;;;;;;5047843;28;20042;-81
2022/09/22 05:59:17;;;;;;;3.67;2.20;;;8.50;84.60;;;;;;5064683;28;20354;-81
2022/09/22 06:01:42;;;;;;;3.75;2.38;;;8.50;84.60;;;;;;5026325;28;20027;-81
2022/09/22 06:04:08;;;;;;;3.53;2.43;;;8.50;84.60;;;;;;5050092;28;20025;-84
2022/09/22 06:06:34;;;;;;;4.23;2.63;;;8.50;84.70;;;;;;5050168;28;20036;-83
2022/09/22 06:09:00;;;;;;;3.67;2.33;;;8.50;84.80;;;;;;5055486;28;20290;-83
2022/09/22 06:11:26;;;;;;;4.22;2.25;;;8.50;84.90;;;;;;5059072;28;20063;-83
2022/09/22 06:13:52;;;;;;;3.60;2.20;;;8.50;85.00;;;;;;5072002;28;20835;-83
2022/09/22 06:16:17;;;;;;;3.30;2.60;;;8.60;85.10;;;;;;5043482;28;20040;-83
2022/09/22 06:18:47;;;;;;;3.20;2.30;;;8.60;85.30;;;;;;5070575;28;20053;-83
2022/09/22 06:21:13;;;;;;;3.30;2.50;;;8.60;85.40;;;;;;5054306;28;20028;-83
2022/09/22 06:23:40;;;;;;;3.23;2.20;;;8.60;85.40;;;;;;5067646;28;20044;-83
2022/09/22 06:26:06;;;;;;;4.63;2.35;;;8.70;85.60;;;;;;5053083;28;20012;-83
2022/09/22 06:28:32;;;;;;;5.13;2.50;;;8.70;85.70;;;;;;5041636;28;20016;-83
2022/09/22 06:30:59;;;;;;;3.60;2.40;;;8.70;85.80;;;;;;5075449;27;20024;-83
2022/09/22 06:33:25;;;;;;;3.30;2.20;;;8.80;85.90;;;;;;5057529;28;20016;-83
2022/09/22 06:35:51;;;;;;;3.25;2.33;;;8.80;86.10;;;;;;5043670;28;20375;-83
2022/09/22 06:38:16;;;;;;;3.40;2.50;;;8.80;86.20;;;;;;5046584;28;20047;-83
2022/09/22 06:40:43;;;;;;;3.58;2.38;;;8.90;86.30;;;;;;5060456;28;20020;-83
2022/09/22 06:43:21;;;;;;;3.50;2.60;;;8.90;86.50;;;;;;5074691;27;20076;-81
2022/09/22 06:45:47;;;;;;;3.70;2.53;;;9.00;86.80;;;;;;5060246;28;20024;-81
2022/09/22 06:48:13;;;;;;;4.30;2.63;;;9.00;86.80;;;;;;5047994;28;20040;-81
2022/09/22 06:50:39;;;;;;;3.88;2.97;;;9.10;87.10;;;;;;5053027;28;20098;-81
2022/09/22 06:53:07;;;;;;;4.20;2.83;;;9.20;87.30;;;;;;5058808;28;20668;-81
2022/09/22 06:55:34;;;;;;;5.90;3.10;;;9.20;87.50;;;;;;5049854;28;20249;-81
2022/09/22 06:58:01;;;;;;;3.63;2.78;;;9.30;87.80;;;;;;5060548;28;20028;-81
2022/09/22 07:00:31;;;;;;;4.38;2.80;;;9.40;88.00;;;;;;5053763;28;20029;-81
2022/09/22 07:03:03;;;;;;;5.35;3.08;;;9.40;88.30;;;;;;5056324;28;20020;-81
2022/09/22 07:05:30;;;;;;;3.63;2.83;;;9.60;88.90;;;;;;5069118;28;20085;-81
2022/09/22 07:07:55;;;;;;;5.03;3.27;;;9.70;89.00;;;;;;5073024;28;20048;-81
2022/09/22 07:10:21;;;;;;;4.50;3.30;;;9.80;89.30;;;;;;5036760;28;20131;-81
2022/09/22 07:12:48;;;;;;;4.70;3.20;;;9.90;89.50;;;;;;5056979;28;20064;-81
2022/09/22 07:15:13;;;;;;;5.82;3.47;;;10.00;89.90;;;;;;5069764;28;20020;-81
2022/09/22 07:17:39;;;;;;;4.78;3.25;;;10.20;90.20;;;;;;5060328;28;20051;-81
2022/09/22 07:20:07;;;;;;;4.77;3.20;;;10.40;90.80;;;;;;5057924;28;20118;-81
2022/09/22 07:22:35;;;;;;;5.03;3.53;;;10.60;91.90;;;;;;5057043;28;20774;-82
2022/09/22 07:25:01;;;;;;;4.15;3.17;;;11.00;93.50;;;;;;5054620;28;20492;-81
2022/09/22 07:27:26;;;;;;;5.03;3.63;;;11.60;95.20;;;;;;5050990;28;20109;-82
2022/09/22 07:29:53;;;;;;;5.23;3.70;;;12.20;96.70;;;;;;5065559;28;20043;-82
2022/09/22 07:32:20;;;;;;;5.25;3.83;;;12.90;97.90;;;;;;5072468;28;20040;-82
2022/09/22 07:34:47;;;;;;;5.22;3.67;;;13.70;98.40;;;;;;5062831;28;20031;-82
2022/09/22 07:37:14;;;;;;;4.80;3.83;;;14.50;98.60;;;;;;5075719;28;20210;-82
2022/09/22 07:39:42;;;;;;;5.20;3.73;;;15.20;98.40;;;;;;5049265;28;20141;-82
2022/09/22 07:42:07;;;;;;;5.65;3.60;;;16.00;98.10;;;;;;5060453;28;20035;-82
2022/09/22 07:48:35;;;;;;;4.80;3.42;;;17.30;96.40;;;;;;5065948;28;20089;-82
2022/09/22 07:50:03;;;;;;;4.90;3.70;;;18.00;95.80;;;;;;5051299;28;20135;-82
2022/09/22 07:52:30;;;;;;;4.13;3.33;;;18.60;95.00;;;;;;5053091;28;20060;-82
2022/09/22 07:54:55;;;;;;;4.30;3.47;;;19.20;94.40;;;;;;5070315;28;20024;-82
2022/09/22 07:57:21;;;;;;;5.53;3.70;;;19.80;93.70;;;;;;5072639;28;20150;-82
2022/09/22 07:59:46;;;;;;;4.00;3.33;;;20.30;93.10;;;;;;5066882;28;20042;-82
2022/09/22 08:02:14;;;;;;;4.17;3.07;;;20.80;92.20;;;;;;5053158;28;20107;-82
2022/09/22 08:04:40;;;;;;;5.85;3.70;;;21.20;91.30;;;;;;5027432;28;20019;-82
2022/09/22 08:07:06;;;;;;;4.53;3.60;;;21.60;90.80;;;;;;5065871;28;20020;-82
2022/09/22 08:09:32;;;;;;;5.30;3.50;;;21.90;90.50;;;;;;5071457;28;20216;-83
2022/09/22 08:11:58;;;;;;;4.53;3.60;;;22.30;90.00;;;;;;5045951;28;20024;-83
2022/09/22 08:14:24;;;;;;;3.83;3.40;;;22.70;89.30;;;;;;5051751;28;20016;-82
2022/09/22 08:16:52;;;;;;;4.30;3.27;;;23.00;89.00;;;;;;5056570;28;20206;-83
2022/09/22 08:19:20;;;;;;;6.18;3.58;;;23.30;88.70;;;;;;5045640;28;20047;-82
2022/09/22 08:21:48;;;;;;;4.03;2.88;;;23.60;88.00;;;;;;5071276;28;20035;-82
2022/09/22 08:24:19;;;;;;;3.60;3.03;;;23.90;87.60;;;;;;5074489;28;20112;-82
2022/09/22 08:26:46;;;;;;;3.63;3.03;;;24.30;87.10;;;;;;5065216;28;20259;-82
2022/09/22 08:29:11;;;;;;;4.73;3.07;;;24.50;87.10;;;;;;5058833;28;20029;-82
2022/09/22 08:31:40;;;;;;;3.20;2.75;;;24.90;86.60;;;;;;5053190;28;20489;-82
2022/09/22 08:34:07;;;;;;;4.50;2.80;;;25.10;85.20;;;;;;5079015;28;20245;-82
2022/09/22 08:36:33;;;;;;;4.10;2.85;;;25.40;85.80;;;;;;5038702;28;20028;-82
2022/09/22 08:38:59;;;;;;;4.23;2.50;;;25.70;85.70;;;;;;5068639;28;20522;-83
2022/09/22 08:41:46;;;;;;;3.78;2.80;;;26.00;85.70;;;;;;5050158;28;20497;-82
2022/09/22 08:44:24;;;;;;;3.35;2.30;;;26.20;82.90;;;;;;5045617;28;20035;-82
2022/09/22 08:46:52;;;;;;;3.88;3.40;;;26.50;79.70;;;;;;5073925;28;20024;-82
2022/09/22 08:52:45;;;;;;;4.55;2.63;;;27.00;79.10;;;;;;5043584;28;20071;-82
2022/09/22 08:55:22;;;;;;;2.53;2.20;;;27.30;83.10;;;;;;5064647;28;20477;-82
2022/09/22 08:58:05;;;;;;;2.80;2.30;;;27.50;78.50;;;;;;5069038;28;20020;-82
2022/09/22 09:00:42;;;;;;;2.60;2.40;;;27.70;77.70;;;;;;5050116;28;20155;-82
2022/09/22 09:03:37;;;;;;;3.23;2.50;;;27.90;78.20;;;;;;5054902;28;20017;-82
2022/09/22 09:06:11;;;;;;;3.10;2.40;;;28.20;75.40;;;;;;5078545;28;20531;-82
2022/09/22 09:08:52;;;;;;;3.47;2.40;;;28.30;79.50;;;;;;5045626;28;20251;-82
2022/09/22 09:11:22;;;;;;;2.80;2.00;;;28.50;81.20;;;;;;5053845;28;20496;-83
2022/09/22 09:14:00;;;;;;;3.40;2.38;;;28.70;81.80;;;;;;5072087;27;20232;-82
2022/09/22 09:16:35;;;;;;;2.73;2.50;;;28.90;79.30;;;;;;5065195;28;20551;-82
2022/09/22 09:19:16;;;;;;;2.55;2.17;;;29.00;75.40;;;;;;5085796;28;20536;-82
2022/09/22 09:21:50;;;;;;;2.58;2.22;;;29.20;75.70;;;;;;5069870;28;20604;-82
2022/09/22 09:24:44;;;;;;;2.50;2.30;;;29.40;76.00;;;;;;5059607;28;20503;-82
2022/09/22 09:27:18;;;;;;;3.75;2.60;;;29.50;72.40;;;;;;5078120;28;20123;-82
2022/09/22 09:30:10;;;;;;;3.57;2.10;;;29.70;77.40;;;;;;5074285;28;20028;-83
2022/09/22 09:32:42;;;;;;;3.00;2.53;;;29.90;75.00;;;;;;5059231;28;20316;-83
2022/09/22 09:35:13;;;;;;;3.45;2.60;;;30.10;76.80;;;;;;5062486;28;20021;-83
2022/09/22 09:37:43;;;;;;;2.92;2.70;;;30.30;76.90;;;;;;5068974;28;20267;-82
2022/09/22 09:40:14;;;;;;;3.10;2.30;;;30.40;77.10;;;;;;5059057;28;20032;-83
2022/09/22 09:42:42;;;;;;;2.73;2.20;;;30.60;75.00;;;;;;5068099;28;20586;-83
2022/09/22 09:45:13;;;;;;;2.90;2.28;;;30.70;76.40;;;;;;5039759;28;20273;-83
2022/09/22 09:47:56;;;;;;;2.33;2.00;;;30.90;75.00;;;;;;5067263;28;20336;-83
2022/09/22 09:50:23;;;;;;;2.30;2.10;;;31.00;74.20;;;;;;5066180;28;20093;-82
2022/09/22 09:52:49;;;;;;;2.13;1.85;;;31.10;75.70;;;;;;5069889;28;20028;-83
2022/09/22 09:55:26;;;;;;;2.50;2.30;;;31.30;75.60;;;;;;5061185;28;20524;-82
2022/09/22 09:58:06;;;;;;;2.67;2.47;;;31.50;69.30;;;;;;5066666;28;20028;-83
2022/09/22 10:00:33;;;;;;;3.35;2.05;;;31.70;69.30;;;;;;5038334;28;20254;-82
2022/09/22 10:03:11;;;;;;;2.07;1.87;;;31.80;72.50;;;;;;5074334;28;20032;-83
2022/09/22 10:05:36;;;;;;;2.40;1.75;;;32.00;70.50;;;;;;5057249;28;20183;-83
2022/09/22 10:08:16;;;;;;;4.18;2.45;;;32.20;71.30;;;;;;5064067;28;20029;-82
2022/09/22 10:10:42;;;;;;;3.70;2.25;;;32.40;62.20;;;;;;5043075;28;20029;-83
2022/09/22 10:13:07;;;;;;;2.50;1.98;;;32.50;68.00;;;;;;5060397;28;20233;-83
2022/09/22 10:15:36;;;;;;;2.20;2.00;;;32.60;67.40;;;;;;5077711;28;20063;-83
2022/09/22 10:18:22;;;;;;;2.33;2.13;;;32.80;65.80;;;;;;5064866;28;20316;-83
2022/09/22 10:21:14;;;;;;;2.50;2.17;;;32.90;65.20;;;;;;5048755;28;20051;-83
2022/09/22 10:23:41;;;;;;;1.63;1.53;;;33.10;59.00;;;;;;5072048;28;20090;-83
2022/09/22 10:26:13;;;;;;;2.40;2.05;;;33.40;64.90;;;;;;5058487;28;20600;-83
2022/09/22 10:28:39;;;;;;;2.20;2.00;;;33.60;59.00;;;;;;5069027;28;20454;-83
2022/09/22 10:31:04;;;;;;;1.83;1.67;;;33.70;63.40;;;;;;5067072;28;20115;-83
2022/09/22 10:33:32;;;;;;;2.53;2.00;;;34.00;63.40;;;;;;5076813;28;20062;-83
2022/09/22 10:36:08;;;;;;;2.88;2.53;;;34.20;61.80;;;;;;5051049;28;20119;-83
2022/09/22 10:38:39;;;;;;;2.40;2.20;;;34.40;56.50;;;;;;5070311;28;20089;-83
2022/09/22 10:41:07;;;;;;;1.87;1.77;;;34.50;58.70;;;;;;5054575;28;20024;-84
2022/09/22 10:44:01;;;;;;;2.00;1.70;;;34.70;59.60;;;;;;5063724;28;20028;-85
2022/09/22 10:46:35;;;;;;;1.63;1.52;;;34.70;55.40;;;;;;5062532;28;20448;-83
2022/09/22 10:49:30;;;;;;;1.63;1.52;;;34.70;57.50;;;;;;5052292;28;20109;-84
2022/09/22 10:52:04;;;;;;;1.58;1.48;;;34.70;52.70;;;;;;5055533;28;20071;-84
2022/09/22 10:54:57;;;;;;;1.50;1.40;;;34.70;55.90;;;;;;5052574;28;20884;-84
2022/09/22 10:57:45;;;;;;;1.90;1.63;;;34.60;51.10;;;;;;5065059;28;20343;-84
2022/09/22 11:00:21;;;;;;;1.48;1.30;;;34.50;48.80;;;;;;5073223;28;20035;-83
2022/09/22 11:03:04;;;;;;;1.50;1.33;;;34.50;51.10;;;;;;5043782;28;20495;-84
2022/09/22 11:14:13;;;;;;;1.40;1.30;;;34.30;53.30;;;;;;5052056;28;20863;-84
2022/09/22 11:16:58;;;;;;;1.73;1.20;;;34.30;50.80;;;;;;5053299;28;20059;-84
2022/09/22 11:19:42;;;;;;;1.40;1.30;;;34.10;47.40;;;;;;5041520;28;20050;-84
2022/09/22 11:22:31;;;;;;;1.20;1.10;;;34.10;51.90;;;;;;5064613;28;20385;-84
2022/09/22 11:25:25;;;;;;;1.73;1.50;;;34.10;48.20;;;;;;5006993;28;20579;-86
2022/09/22 11:28:03;;;;;;;1.45;1.35;;;34.00;49.40;;;;;;5058393;28;20744;-84
2022/09/22 11:30:45;;;;;;;1.48;1.38;;;34.10;48.60;;;;;;5047073;28;20040;-84
2022/09/22 11:33:33;;;;;;;1.50;1.20;;;34.30;49.60;;;;;;5048808;28;20107;-84
2022/09/22 11:36:06;;;;;;;1.20;1.10;;;34.40;47.30;;;;;;5051850;28;20319;-84
2022/09/22 11:38:37;;;;;;;1.55;1.45;;;34.50;51.40;;;;;;5077866;28;20060;-84
2022/09/22 11:41:26;;;;;;;1.40;1.30;;;34.50;48.00;;;;;;5066065;28;20257;-83
2022/09/22 11:44:27;;;;;;;1.48;1.25;;;34.70;46.40;;;;;;5054430;28;20160;-83
2022/09/22 11:47:14;;;;;;;1.95;1.42;;;34.90;47.80;;;;;;5047203;28;20020;-84
2022/09/22 11:49:49;;;;;;;1.80;1.70;;;35.20;48.10;;;;;;5065675;28;20060;-84
2022/09/22 11:52:15;;;;;;;1.25;1.10;;;35.40;51.50;;;;;;5069866;28;20372;-83
2022/09/22 11:55:02;;;;;;;1.40;1.30;;;35.60;50.60;;;;;;5071289;28;20035;-86
2022/09/22 11:57:33;;;;;;;1.30;1.10;;;35.80;48.30;;;;;;5059101;28;20480;-85
2022/09/22 12:00:17;;;;;;;1.40;1.30;;;35.80;47.90;;;;;;5055239;28;20515;-84
2022/09/22 12:03:09;;;;;;;1.40;1.30;;;35.80;43.80;;;;;;5056840;28;20635;-84
2022/09/22 12:05:51;;;;;;;1.40;1.30;;;35.80;46.80;;;;;;5063444;28;20039;-84
2022/09/22 12:08:19;;;;;;;1.90;1.40;;;35.70;43.70;;;;;;5059400;28;20025;-84
2022/09/22 12:10:46;;;;;;;1.50;1.40;;;35.70;46.80;;;;;;5056213;28;20020;-84
2022/09/22 12:13:24;;;;;;;3.88;1.27;;;35.80;47.20;;;;;;5039522;28;20240;-84
2022/09/22 12:16:11;;;;;;;1.50;1.40;;;35.80;43.10;;;;;;5056063;28;20171;-84
2022/09/22 12:18:47;;;;;;;1.15;1.05;;;35.80;44.20;;;;;;5053624;28;20480;-84
2022/09/22 12:21:42;;;;;;;1.77;1.35;;;35.90;46.80;;;;;;5063020;28;20033;-84
2022/09/22 12:24:10;;;;;;;1.30;1.20;;;35.90;43.50;;;;;;5065699;28;20302;-84
2022/09/22 12:26:46;;;;;;;1.40;1.30;;;35.80;46.10;;;;;;5070963;28;20035;-83
2022/09/22 12:29:15;;;;;;;1.40;1.30;;;35.80;42.50;;;;;;5074700;28;20041;-84
2022/09/22 12:31:43;;;;;;;1.17;1.08;;;35.80;44.50;;;;;;5037260;28;20500;-84
2022/09/22 12:34:31;;;;;;;1.35;1.25;;;35.80;45.10;;;;;;5084647;28;20486;-84
2022/09/22 12:37:07;;;;;;;1.37;1.10;;;35.80;43.00;;;;;;5067226;28;20449;-85
2022/09/22 12:39:40;;;;;;;1.45;1.30;;;35.60;44.30;;;;;;5052681;28;20032;-83
2022/09/22 12:42:17;;;;;;;1.35;1.25;;;35.50;42.80;;;;;;5054523;28;20265;-85
2022/09/22 12:45:06;;;;;;;1.20;1.10;;;35.40;43.60;;;;;;5046733;28;20236;-84
2022/09/22 12:47:39;;;;;;;1.52;1.10;;;35.40;42.00;;;;;;5061274;28;20044;-84
2022/09/22 12:50:37;;;;;;;1.27;1.17;;;35.30;42.50;;;;;;5070648;28;20287;-84
2022/09/22 12:53:21;;;;;;;1.23;1.15;;;35.30;41.10;;;;;;5054311;28;20027;-84
2022/09/22 12:55:52;;;;;;;1.15;1.05;;;35.40;42.50;;;;;;5069096;28;20513;-84
2022/09/22 12:58:17;;;;;;;1.20;1.02;;;35.40;41.70;;;;;;5071056;28;20529;-84
2022/09/22 13:00:43;;;;;;;1.30;1.20;;;35.40;44.00;;;;;;5030116;28;20040;-84
2022/09/22 13:03:24;;;;;;;1.30;1.20;;;35.40;43.10;;;;;;5044476;28;20036;-83
2022/09/22 13:05:53;;;;;;;0.93;0.93;;;35.20;40.60;;;;;;5056726;28;20061;-84
2022/09/22 13:08:31;;;;;;;0.98;0.98;;;35.20;41.70;;;;;;5049025;28;20020;-85
2022/09/22 13:11:04;;;;;;;1.25;0.98;;;35.20;40.80;;;;;;5042977;28;20613;-84
2022/09/22 13:13:30;;;;;;;1.33;1.00;;;35.10;42.10;;;;;;5075164;28;20016;-84
2022/09/22 13:16:01;;;;;;;1.47;1.00;;;35.00;42.00;;;;;;5071794;28;20412;-83
2022/09/22 13:18:34;;;;;;;1.27;1.10;;;34.90;40.90;;;;;;5064730;28;20058;-82
2022/09/22 13:21:11;;;;;;;1.20;1.10;;;34.80;39.30;;;;;;5070373;28;20502;-84
2022/09/22 13:23:52;;;;;;;1.20;1.10;;;34.80;40.80;;;;;;5066365;28;20507;-82
2022/09/22 13:26:39;;;;;;;0.95;0.95;;;34.70;38.50;;;;;;5072713;28;20067;-83